logo
Search for airport 
image banner adimage banner adimage banner ad
image banner ad

MMHSV - Alsavision

Located in Miguel Hidalgo, Mexico

ICAO - , IATA -

Data provided by Airmate  

General information

Coordinates: N19°26'12" W99°12'5"
Elevation is 7522 feet MSL.
Magnetic variation is 3° East
View others Airports in Distrito Federal

Operational data

Special qualification required
Current time UTC:
Current local time:
METAR: MMMX 231545Z 07004KT 7SM SCT020 BKN200 21/13 A3037 NOSIG RMK 8/108 HZY
TAF: TAF MMMX 231642Z 2318/2418 04008KT P6SM SCT020 TX23/2320Z TN15/2412Z BECMG 2320/2321 04010KT BKN020CB TEMPO 2321/2401 04015KT 4SM TSRA BKN020CB FM240300 04005KT P6SM SCT020 BKN080 TEMPO 2410/2414 5SM BR HZ
View NOTAMs / SUP AIP / TFR affecting this airport [VIEW]
Communications frequencies: [VIEW]

Runways:

Airport contact information

Address: Miguel Hidalgo Mexico

Satellite view of MMHSV